.
WxDataArchive / Data Records for 2013-08-17
2013-08-16 August 2013 2013-08-18

Data Records for Saturday, 17 August 2013

Time	Temp	Chill	HIndex	Humid	Dewpt	 Wind 	HiWind	WindDir	Rain 	Barom 
-----	----	-----	------	-----	-----	------	------	-------	-----	----- 
00:00	59.9	59.9	59.9	87	56.0	0	0	---	0.00	30.179 
00:05	59.8	59.8	59.8	87	55.9	0	0	---	0.00	30.179 
00:10	59.6	59.6	59.6	87	55.7	0	0	---	0.00	30.179 
00:15	59.5	59.5	59.5	88	55.9	0	0	---	0.00	30.178 
00:20	59.3	59.3	59.3	88	55.7	0	0	---	0.00	30.178 
00:25	59.2	59.2	59.2	88	55.6	0	0	---	0.00	30.178 
00:30	59.0	59.0	59.0	88	55.4	0	0	---	0.00	30.180 
00:35	59.0	59.0	59.0	89	55.8	0	0	---	0.00	30.180 
00:40	58.9	58.9	58.9	89	55.7	0	0	---	0.00	30.180 
00:45	58.9	58.9	58.9	89	55.7	0	0	---	0.00	30.182 
00:50	58.7	58.7	58.7	89	55.5	0	0	---	0.00	30.182 
00:55	58.6	58.6	58.6	90	55.7	0	0	---	0.00	30.182 
01:00	58.6	58.6	58.6	90	55.7	0	0	---	0.00	30.185 
01:05	58.4	58.4	58.4	90	55.5	0	0	---	0.00	30.185 
01:10	58.3	58.3	58.3	90	55.4	0	0	---	0.00	30.185 
01:15	58.3	58.3	58.3	90	55.4	0	0	---	0.00	30.185 
01:20	58.3	58.3	58.3	91	55.7	0	0	---	0.00	30.185 
01:25	58.1	58.1	58.1	91	55.5	0	0	---	0.00	30.185 
01:30	58.1	58.1	58.1	91	55.5	0	0	---	0.00	30.190 
01:35	58.0	58.0	58.0	91	55.4	0	0	---	0.00	30.190 
01:40	57.8	57.8	57.8	91	55.2	0	0	---	0.00	30.190 
01:45	57.6	57.6	57.6	91	55.0	0	0	---	0.00	30.194 
01:50	57.5	57.5	57.5	91	54.9	0	0	---	0.00	30.194 
01:55	57.5	57.5	57.5	91	54.9	0	0	---	0.00	30.194 
02:00	57.3	57.3	57.3	92	55.0	0	0	---	0.00	30.192 
02:05	57.2	57.2	57.2	92	54.9	0	0	---	0.00	30.192 
02:10	57.2	57.2	57.2	92	54.9	0	0	---	0.00	30.192 
02:15	57.2	57.2	57.2	92	54.9	0	0	---	0.00	30.186 
02:20	57.0	57.0	57.0	92	54.7	0	0	---	0.00	30.186 
02:25	57.0	57.0	57.0	92	54.7	0	0	---	0.00	30.186 
02:30	56.9	56.9	56.9	92	54.6	0	0	---	0.00	30.185 
02:35	56.9	56.9	56.9	92	54.6	0	0	---	0.00	30.185 
02:40	56.9	56.9	56.9	92	54.6	0	0	---	0.00	30.185 
02:45	56.9	56.9	56.9	92	54.6	0	0	---	0.00	30.180 
02:50	56.9	56.9	56.9	92	54.6	0	0	---	0.00	30.180 
02:55	56.7	56.7	56.7	93	54.7	0	0	---	0.00	30.180 
03:00	56.7	56.7	56.7	93	54.7	0	0	---	0.00	30.181 
03:05	56.7	56.7	56.7	93	54.7	0	0	---	0.00	30.181 
03:10	56.6	56.6	56.6	93	54.6	0	0	---	0.00	30.181 
03:15	56.6	56.6	56.6	93	54.6	0	0	---	0.00	30.181 
03:20	56.5	56.5	56.5	93	54.5	0	0	---	0.00	30.181 
03:25	56.3	56.3	56.3	93	54.3	0	0	---	0.00	30.181 
03:30	56.2	56.2	56.2	93	54.2	0	0	---	0.00	30.185 
03:35	56.2	56.2	56.2	93	54.2	0	0	---	0.00	30.185 
03:40	56.0	56.0	56.0	93	54.0	0	0	---	0.00	30.185 
03:45	56.0	56.0	56.0	93	54.0	0	0	---	0.00	30.191 
03:50	55.9	55.9	55.9	93	53.9	0	0	---	0.00	30.191 
03:55	55.9	55.9	55.9	93	53.9	0	0	---	0.00	30.191 
04:00	55.7	55.7	55.7	93	53.7	0	0	---	0.00	30.195 
04:05	55.7	55.7	55.7	93	53.7	0	0	---	0.00	30.195 
04:10	55.9	55.9	55.9	94	54.2	0	0	---	0.00	30.195 
04:15	55.7	55.7	55.7	94	54.0	0	0	---	0.00	30.197 
04:20	55.7	55.7	55.7	94	54.0	0	0	---	0.00	30.197 
04:25	55.6	55.6	55.6	94	53.9	0	0	---	0.00	30.197 
04:30	55.6	55.6	55.6	94	53.9	0	0	---	0.00	30.196 
04:35	55.6	55.6	55.6	94	53.9	0	0	---	0.00	30.196 
04:40	55.6	55.6	55.6	94	53.9	0	0	---	0.00	30.196 
04:45	55.6	55.6	55.6	94	53.9	0	0	---	0.00	30.196 
04:50	55.6	55.6	55.6	94	53.9	0	0	---	0.00	30.196 
04:55	55.4	55.4	55.4	94	53.7	0	0	---	0.00	30.196 
05:00	55.3	55.3	55.3	94	53.6	0	0	---	0.00	30.196 
05:05	55.3	55.3	55.3	94	53.6	0	0	---	0.00	30.196 
05:10	55.1	55.1	55.1	94	53.4	0	0	---	0.00	30.196 
05:15	55.1	55.1	55.1	94	53.4	0	0	---	0.00	30.198 
05:20	55.0	55.0	55.0	94	53.3	0	0	---	0.00	30.198 
05:25	54.8	54.8	54.8	94	53.1	0	0	---	0.00	30.198 
05:30	54.8	54.8	54.8	94	53.1	0	0	---	0.00	30.200 
05:35	54.7	54.7	54.7	94	53.0	0	0	---	0.00	30.200 
05:40	54.7	54.7	54.7	94	53.0	0	0	---	0.00	30.200 
05:45	54.7	54.7	54.7	94	53.0	0	0	---	0.00	30.200 
05:50	54.7	54.7	54.7	94	53.0	0	0	---	0.00	30.200 
05:55	54.7	54.7	54.7	94	53.0	0	0	---	0.00	30.200 
06:00	54.5	54.5	54.5	94	52.8	0	0	---	0.00	30.200 
06:05	54.5	54.5	54.5	94	52.8	0	0	---	0.00	30.200 
06:10	54.5	54.5	54.5	94	52.8	0	0	---	0.00	30.200 
06:15	54.4	54.4	54.4	95	53.0	0	0	---	0.00	30.204 
06:20	54.4	54.4	54.4	95	53.0	0	0	---	0.00	30.204 
06:25	54.2	54.2	54.2	95	52.8	0	0	---	0.00	30.204 
06:30	54.4	54.4	54.4	95	53.0	0	0	---	0.00	30.205 
06:35	54.4	54.4	54.4	95	53.0	0	0	---	0.00	30.205 
06:40	54.4	54.4	54.4	95	53.0	0	0	---	0.00	30.205 
06:45	54.4	54.4	54.4	95	53.0	0	0	---	0.00	30.210 
06:50	54.5	54.5	54.5	95	53.1	0	0	---	0.00	30.210 
06:55	54.4	54.4	54.4	95	53.0	0	0	---	0.00	30.210 
07:00	54.4	54.4	54.4	95	53.0	0	0	---	0.00	30.214 
07:05	54.4	54.4	54.4	95	53.0	0	0	---	0.00	30.214 
07:10	54.4	54.4	54.4	95	53.0	0	0	---	0.00	30.214 
07:15	54.4	54.4	54.4	95	53.0	0	0	---	0.00	30.218 
07:20	54.4	54.4	54.4	95	53.0	0	0	---	0.00	30.218 
07:25	54.5	54.5	54.5	95	53.1	0	0	---	0.00	30.218 
07:30	54.7	54.7	54.7	95	53.3	0	0	---	0.00	30.223 
07:35	55.0	55.0	55.0	95	53.6	0	0	---	0.00	30.223 
07:40	55.1	55.1	55.1	95	53.7	0	0	---	0.00	30.223 
07:45	55.6	55.6	55.6	96	54.5	0	1	112	0.00	30.228 
07:50	55.9	55.9	55.9	96	54.8	1	3	112	0.00	30.228 
07:55	56.2	56.2	56.2	95	54.8	0	2	112	0.00	30.228 
08:00	56.3	56.3	56.3	95	54.9	0	1	112	0.00	30.229 
08:05	56.6	56.6	56.6	94	54.9	0	3	112	0.00	30.229 
08:10	56.9	56.9	56.9	93	54.9	0	2	112	0.00	30.229 
08:15	57.2	57.2	57.2	92	54.9	0	2	112	0.00	30.235 
08:20	57.5	57.5	57.5	91	54.9	0	3	112	0.00	30.235 
08:25	58.0	58.0	58.0	89	54.8	0	2	112	0.00	30.235 
08:30	58.4	58.4	58.4	88	54.9	0	3	112	0.00	30.233 
08:35	58.7	58.7	58.7	87	54.8	0	2	112	0.00	30.233 
08:40	59.2	59.2	59.2	87	55.3	0	1	112	0.00	30.233 
08:45	59.8	59.8	59.8	85	55.3	0	1	112	0.00	30.232 
08:50	60.4	60.4	60.4	83	55.2	0	2	112	0.00	30.232 
08:55	61.3	61.3	61.3	81	55.4	0	1	112	0.00	30.232 
09:00	61.8	61.8	61.8	78	54.9	1	4	112	0.00	30.229 
09:05	62.4	62.4	62.4	79	55.8	0	2	112	0.00	30.229 
09:10	63.1	63.1	63.1	78	56.1	0	0	---	0.00	30.229 
09:15	63.7	63.7	63.7	76	56.0	0	2	112	0.00	30.228 
09:20	64.2	64.2	64.2	74	55.7	0	3	112	0.00	30.228 
09:25	64.7	64.7	64.7	73	55.8	0	4	112	0.00	30.228 
09:30	64.8	64.8	64.8	71	55.2	1	3	112	0.00	30.231 
09:35	65.0	65.0	65.0	72	55.7	1	3	112	0.00	30.231 
09:40	65.3	65.3	65.3	73	56.4	1	4	112	0.00	30.231 
09:45	65.6	65.6	65.6	71	55.9	1	4	112	0.00	30.229 
09:50	65.8	65.8	65.8	71	56.1	2	5	112	0.00	30.229 
09:55	65.8	65.8	65.8	73	56.9	0	2	112	0.00	30.229 
10:00	66.0	66.0	66.0	71	56.3	2	5	112	0.00	30.229 
10:05	66.1	66.1	66.1	72	56.8	1	3	90	0.00	30.229 
10:10	66.3	66.3	66.3	72	57.0	1	3	90	0.00	30.229 
10:15	66.3	66.3	66.3	72	57.0	0	2	90	0.00	30.229 
10:20	66.6	66.6	66.6	73	57.7	0	2	90	0.00	30.229 
10:25	67.1	67.1	67.1	72	57.8	0	2	90	0.00	30.229 
10:30	67.8	67.8	67.8	70	57.6	1	4	90	0.00	30.228 
10:35	68.6	68.6	68.6	69	58.0	1	3	90	0.00	30.228 
10:40	69.1	69.1	69.1	68	58.1	2	5	90	0.00	30.228 
10:45	69.3	69.3	69.3	67	57.9	2	6	90	0.00	30.229 
10:50	69.6	69.6	69.6	67	58.1	2	5	90	0.00	30.229 
10:55	69.6	69.6	69.6	67	58.1	3	4	90	0.00	30.229 
11:00	69.8	69.8	69.8	69	59.2	2	4	90	0.00	30.227 
11:05	70.3	70.3	70.3	69	59.6	1	3	90	0.00	30.227 
11:10	70.9	70.9	70.9	67	59.4	2	7	90	0.00	30.227 
11:15	71.5	71.5	71.5	67	60.0	1	3	112	0.00	30.229 
11:20	71.8	71.8	71.8	64	59.0	3	6	112	0.00	30.229 
11:25	71.8	71.8	71.8	62	58.1	3	6	90	0.00	30.229 
11:30	71.5	71.5	71.5	62	57.8	3	6	90	0.00	30.228 
11:35	71.3	71.3	71.3	64	58.5	3	6	90	0.00	30.228 
11:40	71.3	71.3	71.3	64	58.5	3	7	90	0.00	30.228 
11:45	71.6	71.6	71.6	65	59.2	2	5	90	0.00	30.227 
11:50	72.3	72.3	72.3	62	58.5	3	9	90	0.00	30.227 
11:55	73.0	73.0	73.0	62	59.2	2	7	90	0.00	30.227 
12:00	73.3	73.3	73.3	58	57.6	2	5	90	0.00	30.227 
12:05	73.5	73.5	73.5	58	57.8	2	6	112	0.00	30.227 
12:10	73.7	73.7	73.7	56	57.0	3	6	90	0.00	30.227 
12:15	73.7	73.7	73.7	56	57.0	2	6	112	0.00	30.228 
12:20	73.9	73.9	73.9	54	56.2	2	5	90	0.00	30.228 
12:25	74.4	74.4	74.4	53	56.1	2	5	112	0.00	30.228 
12:30	74.9	74.9	74.9	55	57.6	2	6	112	0.00	30.224 
12:35	75.1	75.1	77.6	52	56.3	3	9	90	0.00	30.224 
12:40	75.3	75.3	77.7	52	56.4	2	6	90	0.00	30.224 
12:45	75.6	75.6	77.9	53	57.2	2	5	90	0.00	30.221 
12:50	75.4	75.4	77.8	51	56.0	3	6	90	0.00	30.221 
12:55	75.4	75.4	77.8	51	56.0	3	5	90	0.00	30.221 
13:00	75.4	75.4	77.8	52	56.5	2	6	112	0.00	30.217 
13:05	76.0	76.0	78.1	51	56.5	2	5	112	0.00	30.217 
13:10	76.5	76.5	78.4	52	57.5	1	5	112	0.00	30.217 
13:15	76.8	76.8	78.5	51	57.3	1	4	112	0.00	30.212 
13:20	77.2	77.2	78.7	48	56.0	1	4	90	0.00	30.212 
13:25	77.2	77.2	78.6	47	55.4	2	5	90	0.00	30.212 
13:30	77.0	77.0	78.5	46	54.6	2	5	90	0.00	30.212 
13:35	77.2	77.2	78.5	45	54.2	1	4	90	0.00	30.212 
13:40	77.2	77.2	78.5	43	52.9	1	4	90	0.00	30.212 
13:45	77.7	77.7	78.9	46	55.2	1	4	90	0.00	30.210 
13:50	77.6	77.6	78.8	45	54.6	3	7	90	0.00	30.210 
13:55	77.4	77.4	78.8	48	56.1	1	7	90	0.00	30.210 
14:00	77.4	77.4	78.6	45	54.4	2	4	90	0.00	30.205 
14:05	77.2	77.2	78.5	43	52.9	2	6	90	0.00	30.205 
14:10	77.0	77.0	78.6	49	56.4	2	4	90	0.00	30.205 
14:15	76.8	76.8	78.3	44	53.2	2	6	112	0.00	30.200 
14:20	76.7	76.7	78.3	45	53.7	2	5	90	0.00	30.200 
14:25	76.5	76.5	78.2	46	54.2	1	5	90	0.00	30.200 
14:30	76.8	76.8	78.4	46	54.4	1	4	90	0.00	30.197 
14:35	77.2	77.2	78.5	44	53.6	1	3	90	0.00	30.197 
14:40	77.2	77.2	78.5	43	52.9	2	7	90	0.00	30.197 
14:45	76.7	76.7	78.2	43	52.5	1	2	90	0.00	30.193 
14:50	76.7	76.7	78.3	46	54.3	1	3	90	0.00	30.193 
14:55	76.7	76.7	78.3	44	53.1	2	6	90	0.00	30.193 
15:00	76.7	76.7	78.3	46	54.3	2	6	90	0.00	30.189 
15:05	76.5	76.5	78.2	45	53.6	1	3	90	0.00	30.189 
15:10	76.3	76.3	78.1	46	54.0	1	3	90	0.00	30.189 
15:15	76.8	76.8	78.5	49	56.2	0	3	90	0.00	30.184 
15:20	77.4	77.4	78.6	45	54.4	1	3	90	0.00	30.184 
15:25	77.9	77.9	78.9	44	54.2	2	6	112	0.00	30.184 
15:30	77.9	77.9	79.0	46	55.4	2	6	112	0.00	30.181 
15:35	77.4	77.4	78.6	44	53.8	1	4	112	0.00	30.181 
15:40	77.0	77.0	78.5	47	55.2	1	4	112	0.00	30.181 
15:45	77.4	77.4	78.8	48	56.1	1	2	135	0.00	30.180 
15:50	77.4	77.4	78.6	44	53.8	1	6	112	0.00	30.180 
15:55	77.9	77.9	78.9	45	54.8	1	3	112	0.00	30.180 
16:00	78.5	78.5	79.3	45	55.4	0	3	112	0.00	30.171 
16:05	78.6	78.6	79.2	43	54.2	2	5	112	0.00	30.171 
16:10	79.0	79.0	79.6	44	55.2	1	5	112	0.00	30.171 
16:15	78.8	78.8	79.4	43	54.4	1	6	112	0.00	30.165 
16:20	78.6	78.6	79.2	43	54.2	2	5	112	0.00	30.165 
16:25	78.6	78.6	79.1	41	52.9	2	5	112	0.00	30.165 
16:30	78.6	78.6	79.3	44	54.8	2	5	90	0.00	30.162 
16:35	79.0	79.0	79.5	43	54.6	1	4	90	0.00	30.162 
16:40	78.8	78.8	79.3	42	53.7	2	5	90	0.00	30.162 
16:45	78.8	78.8	79.2	41	53.1	2	5	90	0.00	30.160 
16:50	78.6	78.6	79.2	43	54.2	2	6	90	0.00	30.160 
16:55	78.5	78.5	79.1	42	53.5	2	5	90	0.00	30.160 
17:00	78.3	78.3	78.9	40	52.0	2	6	112	0.00	30.163 
17:05	78.1	78.1	79.0	44	54.4	2	5	68	0.00	30.163 
17:10	77.9	77.9	78.8	42	52.9	2	6	90	0.00	30.163 
17:15	78.1	78.1	78.9	43	53.8	1	4	90	0.00	30.163 
17:20	78.5	78.5	79.1	41	52.8	0	3	90	0.00	30.163 
17:25	78.6	78.6	79.1	41	52.9	1	4	135	0.00	30.163 
17:30	78.6	78.6	79.2	43	54.2	1	3	135	0.00	30.162 
17:35	78.5	78.5	79.2	43	54.1	0	3	158	0.00	30.162 
17:40	78.3	78.3	79.1	44	54.6	1	4	135	0.00	30.162 
17:45	78.3	78.3	79.1	44	54.6	1	4	135	0.00	30.164 
17:50	78.5	78.5	79.2	43	54.1	1	4	135	0.00	30.164 
17:55	78.3	78.3	79.1	43	53.9	2	5	112	0.00	30.164 
18:00	77.7	77.7	78.8	44	54.0	1	3	112	0.00	30.166 
18:05	77.4	77.4	78.6	45	54.4	1	3	112	0.00	30.166 
18:10	77.0	77.0	78.4	44	53.4	1	3	112	0.00	30.166 
18:15	76.8	76.8	78.3	43	52.6	1	4	112	0.00	30.167 
18:20	76.8	76.8	78.3	45	53.8	1	3	90	0.00	30.167 
18:25	76.7	76.7	78.3	44	53.1	3	5	90	0.00	30.167 
18:30	76.5	76.5	78.1	43	52.3	2	4	90	0.00	30.164 
18:35	76.3	76.3	78.0	43	52.1	1	6	68	0.00	30.164 
18:40	76.1	76.1	78.0	44	52.6	1	3	90	0.00	30.164 
18:45	76.0	76.0	77.9	43	51.9	1	4	90	0.00	30.160 
18:50	75.8	75.8	77.9	44	52.3	1	2	90	0.00	30.160 
18:55	75.6	75.6	77.8	46	53.3	0	3	90	0.00	30.160 
19:00	75.6	75.6	77.8	46	53.3	1	2	90	0.00	30.166 
19:05	75.6	75.6	77.8	46	53.3	0	2	90	0.00	30.166 
19:10	75.6	75.6	77.8	46	53.3	0	1	90	0.00	30.166 
19:15	75.6	75.6	77.8	46	53.3	0	2	90	0.00	30.164 
19:20	75.6	75.6	77.9	47	53.9	0	1	90	0.00	30.164 
19:25	75.4	75.4	77.8	48	54.3	0	2	90	0.00	30.164 
19:30	75.3	75.3	77.7	49	54.8	0	1	90	0.00	30.165 
19:35	75.1	75.1	77.7	50	55.2	0	1	90	0.00	30.165 
19:40	74.9	74.9	74.9	50	55.0	0	0	---	0.00	30.165 
19:45	74.6	74.6	74.6	51	55.3	0	1	90	0.00	30.162 
19:50	74.2	74.2	74.2	52	55.4	0	2	90	0.00	30.162 
19:55	74.0	74.0	74.0	53	55.8	0	0	---	0.00	30.162 
20:00	73.7	73.7	73.7	54	56.0	0	0	---	0.00	30.160 
20:05	73.5	73.5	73.5	55	56.3	0	0	---	0.00	30.160 
20:10	73.2	73.2	73.2	56	56.5	0	0	---	0.00	30.160 
20:15	73.0	73.0	73.0	56	56.4	0	0	---	0.00	30.159 
20:20	72.7	72.7	72.7	57	56.6	0	0	---	0.00	30.159 
20:25	72.3	72.3	72.3	58	56.7	0	0	---	0.00	30.159 
20:30	71.8	71.8	71.8	59	56.7	0	0	---	0.00	30.154 
20:35	71.5	71.5	71.5	60	56.9	0	0	---	0.00	30.154 
20:40	70.9	70.9	70.9	60	56.3	0	0	---	0.00	30.154 
20:45	70.4	70.4	70.4	62	56.7	0	0	---	0.00	30.155 
20:50	69.9	69.9	69.9	62	56.3	0	0	---	0.00	30.155 
20:55	69.6	69.6	69.6	63	56.4	0	0	---	0.00	30.155 
21:00	69.3	69.3	69.3	65	57.0	0	0	---	0.00	30.160 
21:05	68.9	68.9	68.9	67	57.5	0	0	---	0.00	30.160 
21:10	68.8	68.8	68.8	69	58.2	0	0	---	0.00	30.160 
21:15	68.4	68.4	68.4	69	57.8	0	0	---	0.00	30.156 
21:20	68.1	68.1	68.1	70	57.9	0	0	---	0.00	30.156 
21:25	67.9	67.9	67.9	71	58.1	0	0	---	0.00	30.156 
21:30	67.6	67.6	67.6	71	57.9	0	0	---	0.00	30.160 
21:35	67.4	67.4	67.4	73	58.4	0	0	---	0.00	30.160 
21:40	67.3	67.3	67.3	73	58.3	0	0	---	0.00	30.160 
21:45	67.1	67.1	67.1	74	58.5	0	0	---	0.00	30.165 
21:50	67.1	67.1	67.1	74	58.5	0	2	90	0.00	30.165 
21:55	67.3	67.3	67.3	74	58.7	0	2	90	0.00	30.165 
22:00	67.4	67.4	67.4	74	58.8	0	1	90	0.00	30.166 
22:05	67.6	67.6	67.6	73	58.6	0	1	90	0.00	30.166 
22:10	67.8	67.8	67.8	73	58.8	0	2	90	0.00	30.166 
22:15	67.9	67.9	67.9	73	58.9	0	2	90	0.00	30.164 
22:20	67.9	67.9	67.9	73	58.9	0	2	90	0.00	30.164 
22:25	67.9	67.9	67.9	74	59.3	0	1	90	0.00	30.164 
22:30	67.8	67.8	67.8	74	59.2	0	4	90	0.00	30.164 
22:35	67.6	67.6	67.6	74	59.0	1	2	90	0.00	30.164 
22:40	67.4	67.4	67.4	75	59.2	1	2	90	0.00	30.164 
22:45	67.3	67.3	67.3	75	59.1	1	4	90	0.00	30.164 
22:50	67.1	67.1	67.1	75	58.9	0	1	90	0.00	30.164 
22:55	66.9	66.9	66.9	75	58.7	0	2	90	0.00	30.164 
23:00	66.8	66.8	66.8	76	59.0	0	2	90	0.00	30.164 
23:05	66.6	66.6	66.6	76	58.8	0	1	90	0.00	30.164 
23:10	66.4	66.4	66.4	77	59.0	0	1	90	0.00	30.164 
23:15	66.1	66.1	66.1	77	58.7	0	1	90	0.00	30.159 
23:20	65.8	65.8	65.8	77	58.4	0	1	90	0.00	30.159 
23:25	65.6	65.6	65.6	78	58.5	0	0	---	0.00	30.159 
23:30	65.3	65.3	65.3	78	58.3	0	0	---	0.00	30.160 
23:35	65.2	65.2	65.2	78	58.2	0	0	---	0.00	30.160 
23:40	64.8	64.8	64.8	79	58.1	0	0	---	0.00	30.160 
23:45	64.7	64.7	64.7	79	58.0	0	0	---	0.00	30.155 
23:50	64.5	64.5	64.5	79	57.8	0	2	90	0.00	30.155 
23:55	64.5	64.5	64.5	79	57.8	0	1	90	0.00	30.155 

CoCoRaHS
IN-AL-39
A2 Web Hosting
Creative Commons License
GoDaddy
search engine by freefind advanced

loaded 2018-11-20 08:41:20 • last modified 2010-11-18 10:43:29
Privacy PolicyDisclaimer
• wx.awcolley.com is powered by PmWiki v.2002016 •
• all content (unless otherwise noted) © 2018 A W Colley